createdAt,value
2022-10-04T00:01:29.100Z,7.10
2022-10-04T00:04:13.297Z,6.95
2022-10-04T00:06:57.257Z,7.50
2022-10-04T00:09:32.166Z,6.93
2022-10-04T00:12:02.341Z,7.78
2022-10-04T00:14:34.897Z,7.80
2022-10-04T00:17:15.654Z,7.93
2022-10-04T00:19:48.254Z,7.20
2022-10-04T00:22:22.828Z,7.45
2022-10-04T00:25:14.904Z,7.63
2022-10-04T00:28:25.583Z,7.72
2022-10-04T00:31:21.328Z,7.13
2022-10-04T00:34:17.778Z,7.88
2022-10-04T00:36:55.065Z,6.97
2022-10-04T00:39:28.924Z,7.13
2022-10-04T00:42:25.970Z,7.18
2022-10-04T00:45:06.713Z,7.82
2022-10-04T00:47:38.175Z,8.35
2022-10-04T00:50:41.673Z,6.93
2022-10-04T00:53:39.524Z,7.00
2022-10-04T00:56:15.655Z,7.63
2022-10-04T00:59:12.029Z,7.32
2022-10-04T01:01:42.215Z,8.15
2022-10-04T01:04:29.141Z,7.60
2022-10-04T01:07:01.650Z,9.38
2022-10-04T01:09:33.968Z,7.93
2022-10-04T01:12:11.896Z,8.10
2022-10-04T01:15:29.512Z,8.40
2022-10-04T01:18:37.734Z,8.25
2022-10-04T01:21:22.818Z,8.50
2022-10-04T01:24:12.748Z,8.80
2022-10-04T01:26:44.221Z,10.02
2022-10-04T01:29:26.558Z,9.27
2022-10-04T01:31:58.020Z,8.25
2022-10-04T01:34:30.236Z,8.97
2022-10-04T01:37:03.147Z,8.02
2022-10-04T01:39:33.027Z,7.07
2022-10-04T01:42:03.136Z,8.18
2022-10-04T01:44:35.452Z,7.68
2022-10-04T01:47:07.802Z,7.90
2022-10-04T01:49:39.867Z,8.80
2022-10-04T01:52:18.761Z,7.55
2022-10-04T01:54:52.376Z,8.57
2022-10-04T01:57:24.779Z,7.47
2022-10-04T02:00:04.246Z,8.30
2022-10-04T02:02:43.650Z,7.35
2022-10-04T02:05:15.292Z,7.63
2022-10-04T02:07:45.356Z,8.23
2022-10-04T02:10:19.412Z,8.00
2022-10-04T02:12:51.084Z,8.68
2022-10-04T02:15:21.413Z,8.20
2022-10-04T02:17:51.269Z,9.32
2022-10-04T02:20:23.235Z,8.25
2022-10-04T02:23:00.313Z,7.10
2022-10-04T02:25:30.253Z,8.23
2022-10-04T02:28:00.311Z,8.27
2022-10-04T02:30:30.291Z,8.20
2022-10-04T02:33:00.927Z,8.00
2022-10-04T02:35:30.917Z,8.20
2022-10-04T02:38:15.060Z,7.68
2022-10-04T02:40:52.195Z,8.38
2022-10-04T02:43:27.398Z,9.20
2022-10-04T02:46:01.084Z,8.25
2022-10-04T02:48:32.691Z,8.38
2022-10-04T02:51:26.748Z,8.60
2022-10-04T02:54:20.590Z,8.20
2022-10-04T02:56:56.361Z,7.55
2022-10-04T02:59:26.295Z,8.55
2022-10-04T03:01:58.846Z,8.25
2022-10-04T03:04:41.718Z,10.00
2022-10-04T03:07:11.690Z,8.93
2022-10-04T03:09:41.814Z,8.82
2022-10-04T03:12:12.500Z,7.60
2022-10-04T03:14:42.501Z,7.38
2022-10-04T03:17:12.475Z,7.75
2022-10-04T03:19:42.408Z,8.30
2022-10-04T03:22:12.901Z,8.18
2022-10-04T03:24:48.110Z,8.50
2022-10-04T03:27:24.450Z,8.45
2022-10-04T03:29:59.024Z,8.80
2022-10-04T03:32:31.654Z,8.52
2022-10-04T03:35:04.099Z,8.27
2022-10-04T03:37:36.075Z,9.25
2022-10-04T03:40:06.408Z,8.73
2022-10-04T03:42:37.500Z,9.35
2022-10-04T03:45:13.864Z,10.50
2022-10-04T03:47:46.180Z,12.75
2022-10-04T03:52:59.060Z,40.83
2022-10-04T03:55:55.243Z,50.20
2022-10-04T03:58:25.165Z,38.40
2022-10-04T04:00:59.383Z,37.08
2022-10-04T04:03:30.634Z,39.63
2022-10-04T04:06:01.429Z,42.65
2022-10-04T04:08:35.706Z,40.42
2022-10-04T04:11:07.067Z,38.83
2022-10-04T04:13:43.290Z,35.20
2022-10-04T04:16:13.496Z,32.30
2022-10-04T04:18:45.316Z,32.65
2022-10-04T04:21:19.135Z,31.52
2022-10-04T04:23:57.315Z,30.35
2022-10-04T04:26:47.279Z,25.92
2022-10-04T04:29:34.378Z,25.85
2022-10-04T04:32:06.015Z,24.33
2022-10-04T04:34:46.023Z,23.02
2022-10-04T04:37:15.902Z,19.77
2022-10-04T04:39:50.258Z,21.48
2022-10-04T04:42:36.027Z,17.45
2022-10-04T04:45:09.214Z,17.63
2022-10-04T04:47:42.965Z,16.70
2022-10-04T04:50:23.224Z,12.65
2022-10-04T04:53:13.233Z,13.70
2022-10-04T04:56:03.226Z,13.20
2022-10-04T04:58:45.410Z,12.68
2022-10-04T05:01:43.797Z,10.27
2022-10-04T05:04:13.990Z,12.02
2022-10-04T05:06:45.158Z,12.05
2022-10-04T05:09:35.108Z,9.50
2022-10-04T05:12:10.396Z,9.10
2022-10-04T05:14:41.340Z,8.48
2022-10-04T05:17:20.347Z,9.23
2022-10-04T05:19:50.275Z,8.32
2022-10-04T05:22:22.374Z,7.90
2022-10-04T05:24:57.602Z,7.72
2022-10-04T05:27:47.694Z,7.30
2022-10-04T05:30:42.030Z,7.50
2022-10-04T05:33:15.758Z,7.30
2022-10-04T05:36:12.547Z,6.22
2022-10-04T05:39:07.825Z,6.32
2022-10-04T05:42:10.093Z,5.03
2022-10-04T05:44:55.464Z,5.22
2022-10-04T05:47:30.255Z,5.57
2022-10-04T05:50:01.212Z,5.15
2022-10-04T05:52:37.198Z,4.93
2022-10-04T05:55:27.250Z,5.15
2022-10-04T05:58:08.787Z,4.40
2022-10-04T06:01:08.005Z,4.38
2022-10-04T06:03:40.983Z,4.20
2022-10-04T06:06:26.271Z,4.30
2022-10-04T06:09:14.407Z,4.43
2022-10-04T06:12:28.619Z,4.50
2022-10-04T06:15:10.377Z,3.90
2022-10-04T06:18:08.429Z,3.55
2022-10-04T06:20:47.939Z,3.45
2022-10-04T06:23:19.623Z,3.20
2022-10-04T06:26:18.482Z,3.03
2022-10-04T06:28:57.016Z,2.70
2022-10-04T06:31:32.962Z,2.80
2022-10-04T06:34:18.853Z,3.20
2022-10-04T06:37:04.002Z,3.05
2022-10-04T06:40:03.069Z,2.90
2022-10-04T06:42:54.220Z,2.30
2022-10-04T06:45:39.106Z,2.78
2022-10-04T06:48:13.740Z,2.42
2022-10-04T06:51:34.227Z,2.15
2022-10-04T06:54:12.842Z,2.75
2022-10-04T06:57:11.629Z,3.28
2022-10-04T07:00:19.605Z,6.68
2022-10-04T07:02:57.779Z,7.80
2022-10-04T07:05:47.809Z,7.45
2022-10-04T07:08:39.741Z,6.30
2022-10-04T07:11:29.157Z,4.72
2022-10-04T07:14:04.317Z,5.10
2022-10-04T07:16:37.062Z,4.40
2022-10-04T07:19:10.761Z,5.05
2022-10-04T07:22:06.755Z,3.60
2022-10-04T07:25:07.017Z,3.75
2022-10-04T07:28:15.941Z,3.55
2022-10-04T07:31:35.753Z,4.45
2022-10-04T07:34:16.969Z,3.70
2022-10-04T07:36:58.436Z,3.70
2022-10-04T07:39:47.066Z,3.70
2022-10-04T07:42:45.999Z,4.40
2022-10-04T07:45:25.837Z,3.80
2022-10-04T07:48:18.876Z,3.13
2022-10-04T07:51:11.092Z,3.25
2022-10-04T07:53:57.407Z,3.35
2022-10-04T07:56:40.834Z,2.90
2022-10-04T07:59:57.159Z,2.85
2022-10-04T08:02:55.001Z,2.72
2022-10-04T08:05:44.533Z,3.47
2022-10-04T08:08:23.453Z,2.63
2022-10-04T08:11:14.787Z,2.40
2022-10-04T08:14:22.296Z,3.13
2022-10-04T08:17:03.896Z,2.53
2022-10-04T08:19:40.313Z,1.40
2022-10-04T08:22:20.430Z,1.65
2022-10-04T08:24:53.734Z,2.50
2022-10-04T08:28:09.972Z,2.10
2022-10-04T08:30:50.385Z,2.17
2022-10-04T08:33:38.888Z,1.95
2022-10-04T08:36:27.336Z,2.05
2022-10-04T08:39:03.879Z,1.83
2022-10-04T08:41:52.650Z,1.95
2022-10-04T08:44:58.062Z,2.92
2022-10-04T08:47:50.909Z,2.00
2022-10-04T08:50:39.567Z,2.28
2022-10-04T08:53:33.722Z,2.28
2022-10-04T08:56:24.808Z,1.73
2022-10-04T08:59:12.257Z,2.03
2022-10-04T09:01:53.577Z,1.63
2022-10-04T09:04:48.434Z,1.65
2022-10-04T09:07:49.997Z,1.98
2022-10-04T09:10:51.898Z,1.88
2022-10-04T09:13:45.585Z,2.70
2022-10-04T09:16:24.986Z,2.00
2022-10-04T09:19:32.885Z,2.22
2022-10-04T09:22:23.947Z,1.90
2022-10-04T09:25:06.079Z,2.17
2022-10-04T09:27:56.428Z,2.17
2022-10-04T09:30:50.071Z,1.92
2022-10-04T09:33:23.099Z,2.13
2022-10-04T09:36:11.481Z,3.33
2022-10-04T09:38:44.414Z,1.95
2022-10-04T09:41:14.276Z,2.40
2022-10-04T09:43:47.187Z,1.70
2022-10-04T09:46:45.854Z,2.33
2022-10-04T09:49:44.412Z,1.88
2022-10-04T09:52:35.454Z,1.85
2022-10-04T09:55:41.560Z,2.00
2022-10-04T09:58:47.502Z,1.50
2022-10-04T10:01:44.946Z,1.95
2022-10-04T10:04:27.063Z,2.25
2022-10-04T10:07:02.850Z,2.63
2022-10-04T10:09:56.918Z,2.10
2022-10-04T10:13:09.799Z,1.67
2022-10-04T10:16:00.268Z,2.20
2022-10-04T10:18:54.521Z,1.95
2022-10-04T10:21:29.074Z,2.28
2022-10-04T10:24:08.643Z,1.42
2022-10-04T10:27:06.985Z,1.50
2022-10-04T10:29:52.771Z,2.03
2022-10-04T10:32:46.484Z,2.28
2022-10-04T10:35:53.329Z,1.77
2022-10-04T10:38:44.765Z,2.33
2022-10-04T10:41:20.906Z,2.20
2022-10-04T10:44:35.883Z,1.70
2022-10-04T10:47:32.273Z,1.90
2022-10-04T10:50:20.414Z,1.70
2022-10-04T10:53:13.836Z,1.80
2022-10-04T10:55:50.341Z,1.90
2022-10-04T10:59:10.333Z,1.83
2022-10-04T11:01:54.565Z,2.13
2022-10-04T11:04:33.814Z,1.85
2022-10-04T11:07:31.392Z,1.85
2022-10-04T11:10:27.505Z,2.38
2022-10-04T11:13:06.241Z,1.88
2022-10-04T11:15:54.529Z,1.98
2022-10-04T11:18:30.068Z,1.92
2022-10-04T11:21:23.017Z,1.67
2022-10-04T11:23:58.985Z,2.00
2022-10-04T11:26:49.913Z,2.17
2022-10-04T11:29:32.672Z,2.13
2022-10-04T11:32:02.573Z,2.00
2022-10-04T11:35:07.210Z,2.13
2022-10-04T11:37:37.189Z,1.70
2022-10-04T11:40:25.770Z,1.85
2022-10-04T11:43:14.742Z,2.47
2022-10-04T11:46:11.209Z,2.33
2022-10-04T11:49:09.465Z,3.15
2022-10-04T11:51:42.587Z,2.60
2022-10-04T11:54:31.323Z,2.13
2022-10-04T11:57:25.456Z,2.72
2022-10-04T12:00:17.948Z,2.90
2022-10-04T12:03:15.689Z,2.72
2022-10-04T12:06:23.819Z,3.30
2022-10-04T12:10:00.019Z,3.17
2022-10-04T12:12:41.648Z,3.28
2022-10-04T12:15:15.029Z,2.92
2022-10-04T12:18:07.436Z,2.75
2022-10-04T12:20:48.172Z,3.08
2022-10-04T12:23:45.852Z,3.03
2022-10-04T12:26:47.255Z,3.42
2022-10-04T12:30:01.312Z,3.55
2022-10-04T12:32:58.233Z,3.83
2022-10-04T12:35:37.372Z,4.15
2022-10-04T12:38:35.430Z,4.68
2022-10-04T12:41:19.401Z,3.83
2022-10-04T12:44:16.859Z,4.32
2022-10-04T12:47:24.125Z,3.92
2022-10-04T12:50:27.134Z,4.18
2022-10-04T12:53:19.390Z,4.47
2022-10-04T12:56:05.599Z,4.55
2022-10-04T12:59:17.738Z,4.68
2022-10-04T13:01:47.774Z,5.37
2022-10-04T13:04:23.610Z,5.55
2022-10-04T13:07:25.593Z,5.40
2022-10-04T13:10:22.687Z,5.43
2022-10-04T13:13:13.644Z,5.40
2022-10-04T13:19:09.267Z,5.35
2022-10-04T13:21:58.000Z,5.32
2022-10-04T13:24:58.030Z,5.85
2022-10-04T13:27:31.202Z,5.65
2022-10-04T13:30:16.135Z,7.22
2022-10-04T13:33:15.341Z,4.55
2022-10-04T13:35:54.849Z,5.30
2022-10-04T13:38:56.842Z,5.13
2022-10-04T13:41:45.226Z,6.37
2022-10-04T13:44:46.469Z,5.60
2022-10-04T13:47:38.365Z,5.28
2022-10-04T13:50:25.664Z,6.43
2022-10-04T13:53:40.445Z,6.45
2022-10-04T13:56:38.203Z,6.32
2022-10-04T13:59:22.762Z,5.97
2022-10-04T14:02:13.872Z,6.72
2022-10-04T14:05:25.231Z,5.97
2022-10-04T14:08:13.437Z,5.65
2022-10-04T14:11:08.906Z,5.18
2022-10-04T14:13:41.966Z,5.43
2022-10-04T14:16:21.633Z,5.38
2022-10-04T14:19:25.389Z,6.40
2022-10-04T14:22:27.375Z,5.63
2022-10-04T14:25:07.302Z,7.57
2022-10-04T14:27:55.910Z,6.65
2022-10-04T14:30:25.968Z,8.57
2022-10-04T14:33:41.757Z,6.75
2022-10-04T14:36:51.922Z,6.07
2022-10-04T14:39:37.048Z,6.90
2022-10-04T14:42:27.150Z,6.30
2022-10-04T14:45:12.901Z,6.97
2022-10-04T14:48:25.622Z,6.88
2022-10-04T14:51:04.470Z,6.93
2022-10-04T14:53:50.963Z,6.30
2022-10-04T14:56:37.941Z,7.68
2022-10-04T14:59:18.022Z,7.10
2022-10-04T15:02:14.084Z,5.75
2022-10-04T15:05:02.199Z,8.10
2022-10-04T15:07:32.045Z,7.28
2022-10-04T15:10:06.024Z,7.55
2022-10-04T15:13:16.078Z,7.40
2022-10-04T15:16:12.980Z,7.35
2022-10-04T15:18:50.737Z,7.07
2022-10-04T15:21:54.434Z,7.55
2022-10-04T15:24:54.406Z,7.47
2022-10-04T15:27:36.760Z,7.55
2022-10-04T15:30:25.182Z,6.90
2022-10-04T15:33:39.999Z,6.75
2022-10-04T15:36:47.180Z,7.63
2022-10-04T15:39:42.102Z,7.18
2022-10-04T15:42:27.567Z,7.75
2022-10-04T15:45:10.845Z,7.53
2022-10-04T15:47:53.237Z,7.97
2022-10-04T15:50:55.288Z,6.50
2022-10-04T15:54:09.399Z,7.22
2022-10-04T15:56:42.042Z,8.50
2022-10-04T15:59:21.580Z,7.10
2022-10-04T16:02:10.025Z,8.48
2022-10-04T16:05:09.817Z,7.65
2022-10-04T16:07:45.108Z,7.45
2022-10-04T16:10:28.827Z,7.50
2022-10-04T16:13:08.368Z,7.35
2022-10-04T16:15:42.475Z,6.78
2022-10-04T16:18:47.995Z,7.25
2022-10-04T16:21:53.398Z,7.20
2022-10-04T16:24:23.396Z,7.38
2022-10-04T16:26:54.062Z,7.68
2022-10-04T16:30:02.416Z,7.22
2022-10-04T16:33:24.767Z,7.25
2022-10-04T16:36:15.911Z,7.82
2022-10-04T16:39:08.403Z,7.47
2022-10-04T16:41:59.915Z,7.30
2022-10-04T16:44:50.272Z,7.43
2022-10-04T16:47:26.277Z,7.35
2022-10-04T16:49:58.410Z,7.15
2022-10-04T16:55:54.627Z,7.93
2022-10-04T16:58:34.751Z,7.65
2022-10-04T17:01:35.219Z,7.93
2022-10-04T17:04:42.161Z,7.55
2022-10-04T17:07:13.374Z,8.43
2022-10-04T17:09:50.128Z,7.65
2022-10-04T17:12:25.837Z,7.95
2022-10-04T17:15:11.291Z,7.53
2022-10-04T17:17:41.148Z,7.53
2022-10-04T17:20:31.029Z,7.10
2022-10-04T17:23:06.690Z,7.47
2022-10-04T17:25:45.507Z,6.82
2022-10-04T17:28:27.302Z,6.88
2022-10-04T17:31:42.354Z,7.45
2022-10-04T17:34:42.745Z,6.88
2022-10-04T17:37:15.392Z,6.60
2022-10-04T17:39:54.764Z,6.95
2022-10-04T17:42:35.888Z,7.72
2022-10-04T17:45:30.264Z,7.13
2022-10-04T17:48:38.875Z,7.07
2022-10-04T17:51:45.131Z,7.55
2022-10-04T17:54:57.557Z,7.40
2022-10-04T17:57:36.701Z,6.90
2022-10-04T18:00:26.158Z,7.53
2022-10-04T18:03:17.164Z,6.28
2022-10-04T18:05:59.061Z,7.57
2022-10-04T18:08:40.508Z,6.95
2022-10-04T18:11:16.548Z,6.25
2022-10-04T18:13:52.727Z,7.07
2022-10-04T18:16:44.655Z,7.05
2022-10-04T18:19:33.573Z,5.60
2022-10-04T18:22:17.176Z,6.85
2022-10-04T18:24:51.179Z,6.88
2022-10-04T18:27:27.849Z,5.82
2022-10-04T18:30:14.653Z,7.03
2022-10-04T18:32:53.303Z,6.85
2022-10-04T18:35:34.489Z,7.32
2022-10-04T18:38:07.288Z,7.03
2022-10-04T18:40:44.556Z,6.82
2022-10-04T18:43:31.766Z,6.93
2022-10-04T18:46:14.756Z,5.82
2022-10-04T18:49:22.279Z,5.82
2022-10-04T18:52:10.800Z,6.68
2022-10-04T18:54:49.976Z,6.30
2022-10-04T18:57:55.939Z,5.50
2022-10-04T19:00:44.445Z,6.68
2022-10-04T19:03:32.652Z,6.10
2022-10-04T19:06:04.938Z,6.47
2022-10-04T19:08:59.921Z,5.82
2022-10-04T19:11:58.495Z,6.25
2022-10-04T19:14:40.805Z,6.22
2022-10-04T19:17:50.465Z,6.45
2022-10-04T19:20:52.643Z,5.95
2022-10-04T19:23:35.502Z,6.70
2022-10-04T19:26:45.663Z,5.57
2022-10-04T19:29:46.716Z,5.40
2022-10-04T19:32:37.079Z,5.80
2022-10-04T19:35:25.156Z,5.90
2022-10-04T19:38:22.152Z,5.80
2022-10-04T19:41:13.523Z,6.15
2022-10-04T19:43:51.071Z,6.30
2022-10-04T19:46:33.152Z,5.53
2022-10-04T19:49:03.053Z,4.97
2022-10-04T19:51:45.433Z,4.88
2022-10-04T19:56:50.875Z,5.60
2022-10-04T19:59:37.054Z,5.13
2022-10-04T20:02:13.646Z,5.32
2022-10-04T20:04:44.883Z,4.78
2022-10-04T20:07:21.729Z,5.60
2022-10-04T20:10:09.858Z,4.70
2022-10-04T20:12:41.935Z,6.15
2022-10-04T20:15:20.800Z,5.32
2022-10-04T20:17:54.361Z,5.80
2022-10-04T20:20:43.234Z,5.13
2022-10-04T20:23:13.927Z,5.10
2022-10-04T20:25:47.110Z,5.00
2022-10-04T20:28:29.827Z,5.07
2022-10-04T20:33:40.210Z,4.78
2022-10-04T20:36:11.478Z,5.28
2022-10-04T20:39:04.269Z,4.82
2022-10-04T20:41:54.261Z,4.97
2022-10-04T20:44:45.529Z,5.47
2022-10-04T20:47:40.310Z,5.00
2022-10-04T20:50:22.486Z,5.35
2022-10-04T20:52:59.611Z,5.10
2022-10-04T20:55:37.133Z,5.35
2022-10-04T20:58:22.689Z,4.80
2022-10-04T21:00:56.953Z,5.43
2022-10-04T21:03:27.029Z,4.47
2022-10-04T21:06:10.657Z,4.72
2022-10-04T21:08:42.075Z,4.47
2022-10-04T21:11:16.968Z,5.03
2022-10-04T21:14:24.318Z,4.85
2022-10-04T21:17:02.359Z,4.18
2022-10-04T21:19:44.791Z,4.70
2022-10-04T21:22:20.411Z,4.90
2022-10-04T21:24:52.939Z,4.70
2022-10-04T21:27:34.967Z,5.00
2022-10-04T21:30:25.867Z,4.68
2022-10-04T21:32:55.899Z,4.03
2022-10-04T21:35:25.891Z,5.05
2022-10-04T21:37:55.791Z,4.85
2022-10-04T21:40:25.690Z,4.25
2022-10-04T21:42:55.600Z,4.32
2022-10-04T21:45:26.690Z,4.25
2022-10-04T21:47:56.606Z,4.40
2022-10-04T21:50:26.565Z,3.90
2022-10-04T21:52:58.520Z,4.20
2022-10-04T21:55:28.430Z,3.95
2022-10-04T21:57:58.334Z,3.95
2022-10-04T22:00:28.350Z,4.38
2022-10-04T22:02:58.272Z,4.10
2022-10-04T22:05:28.425Z,4.20
2022-10-04T22:07:59.394Z,3.72
2022-10-04T22:10:29.342Z,3.60
2022-10-04T22:12:59.952Z,3.22
2022-10-04T22:15:30.273Z,4.28
2022-10-04T22:18:00.166Z,4.32
2022-10-04T22:20:30.209Z,3.83
2022-10-04T22:23:00.266Z,4.00
2022-10-04T22:25:30.282Z,3.63
2022-10-04T22:28:00.255Z,3.72
2022-10-04T22:30:32.415Z,4.00
2022-10-04T22:33:03.049Z,4.20
2022-10-04T22:35:34.929Z,3.38
2022-10-04T22:38:07.155Z,3.53
2022-10-04T22:40:37.749Z,3.90
2022-10-04T22:43:12.333Z,3.80
2022-10-04T22:45:44.323Z,3.55
2022-10-04T22:48:16.202Z,4.10
2022-10-04T22:50:46.153Z,3.85
2022-10-04T22:53:21.167Z,3.35
2022-10-04T22:55:51.942Z,4.22
2022-10-04T22:58:22.229Z,4.30
2022-10-04T23:00:52.185Z,3.67
2022-10-04T23:03:32.751Z,4.15
2022-10-04T23:06:03.608Z,3.67
2022-10-04T23:08:33.478Z,3.80
2022-10-04T23:11:03.556Z,3.47
2022-10-04T23:13:33.431Z,3.40
2022-10-04T23:16:24.790Z,4.20
2022-10-04T23:19:07.486Z,3.42
2022-10-04T23:24:17.794Z,3.20
2022-10-04T23:26:50.662Z,3.75
2022-10-04T23:29:42.350Z,3.80
2022-10-04T23:32:19.103Z,3.40
2022-10-04T23:34:54.259Z,3.25
2022-10-04T23:37:28.661Z,3.30
2022-10-04T23:39:58.594Z,3.40
2022-10-04T23:42:31.478Z,3.50
2022-10-04T23:45:01.967Z,3.42
2022-10-04T23:47:36.688Z,3.15
2022-10-04T23:50:35.674Z,3.55
2022-10-04T23:53:08.573Z,4.20
2022-10-04T23:58:16.574Z,3.22
